Outlook, Canada
Current Conditions -  °F | °C
As of 4:47 PM on Friday 28 Nov 2014 (Local Time) from CYXE Reporting Station
Light Snow Light Snow  
Wind Chill: -13°   Ceiling: 2200
Heat Index:   Visibility: 1.5mi
Dew Point:   Wind: 12mph
Humidity: 85%   Direction: 50°NE
Pressure: 29.64"   Gusts: 18mph
Location:  51.5°N, 107.05°W
Report Text: CYXE 282247Z 05010G16KT 1 1/2SM -SN DRSN OVC022 M16/M18 A2964 RMK SC8 SLP085
Loading
Personal Weather Stations






























Interactive Weather Map New forecast layout! Learn more

10-Day Weather Forecast

Advertisements
Track Severe Weather on mobile